sensor_id;sensor_type;location;lat;lon;timestamp;temperature;humidity
37222;DHT22;23119;51.842;-2.230;2022-07-29T00:01:24;18.60;93.30
37222;DHT22;23119;51.842;-2.230;2022-07-29T00:03:50;18.60;93.40
37222;DHT22;23119;51.842;-2.230;2022-07-29T00:06:16;18.60;93.60
37222;DHT22;23119;51.842;-2.230;2022-07-29T00:08:42;18.60;93.70
37222;DHT22;23119;51.842;-2.230;2022-07-29T00:11:08;18.50;93.90
37222;DHT22;23119;51.842;-2.230;2022-07-29T00:13:39;18.40;93.90
37222;DHT22;23119;51.842;-2.230;2022-07-29T00:16:05;18.40;93.90
37222;DHT22;23119;51.842;-2.230;2022-07-29T00:18:35;18.40;93.80
37222;DHT22;23119;51.842;-2.230;2022-07-29T00:21:01;18.40;93.90
37222;DHT22;23119;51.842;-2.230;2022-07-29T00:23:26;18.40;93.90
37222;DHT22;23119;51.842;-2.230;2022-07-29T00:25:52;18.30;94.10
37222;DHT22;23119;51.842;-2.230;2022-07-29T00:28:18;18.30;94.30
37222;DHT22;23119;51.842;-2.230;2022-07-29T00:30:44;18.30;94.30
37222;DHT22;23119;51.842;-2.230;2022-07-29T00:33:09;18.20;94.30
37222;DHT22;23119;51.842;-2.230;2022-07-29T00:35:40;18.20;94.30
37222;DHT22;23119;51.842;-2.230;2022-07-29T00:38:09;18.20;94.30
37222;DHT22;23119;51.842;-2.230;2022-07-29T00:40:35;18.10;94.50
37222;DHT22;23119;51.842;-2.230;2022-07-29T00:43:01;18.20;94.50
37222;DHT22;23119;51.842;-2.230;2022-07-29T00:45:27;18.10;94.60
37222;DHT22;23119;51.842;-2.230;2022-07-29T00:47:53;18.20;94.80
37222;DHT22;23119;51.842;-2.230;2022-07-29T00:50:19;18.10;94.90
37222;DHT22;23119;51.842;-2.230;2022-07-29T00:52:44;18.10;94.90
37222;DHT22;23119;51.842;-2.230;2022-07-29T00:55:14;18.20;95.00
37222;DHT22;23119;51.842;-2.230;2022-07-29T00:57:40;18.20;95.10
37222;DHT22;23119;51.842;-2.230;2022-07-29T01:00:09;18.10;95.30
37222;DHT22;23119;51.842;-2.230;2022-07-29T01:02:36;18.10;95.40
37222;DHT22;23119;51.842;-2.230;2022-07-29T01:05:04;18.10;95.50
37222;DHT22;23119;51.842;-2.230;2022-07-29T01:07:33;18.10;95.70
37222;DHT22;23119;51.842;-2.230;2022-07-29T01:10:00;18.10;95.70
37222;DHT22;23119;51.842;-2.230;2022-07-29T01:12:27;18.10;95.70
37222;DHT22;23119;51.842;-2.230;2022-07-29T01:14:55;18.00;95.70
37222;DHT22;23119;51.842;-2.230;2022-07-29T01:17:30;18.00;95.80
37222;DHT22;23119;51.842;-2.230;2022-07-29T01:28:29;18.00;95.90
37222;DHT22;23119;51.842;-2.230;2022-07-29T01:30:44;18.00;96.00
37222;DHT22;23119;51.842;-2.230;2022-07-29T01:33:15;18.00;96.00
37222;DHT22;23119;51.842;-2.230;2022-07-29T01:36:09;17.90;96.00
37222;DHT22;23119;51.842;-2.230;2022-07-29T01:38:38;17.90;96.00
37222;DHT22;23119;51.842;-2.230;2022-07-29T01:41:17;17.90;96.10
37222;DHT22;23119;51.842;-2.230;2022-07-29T01:43:56;17.90;96.10
37222;DHT22;23119;51.842;-2.230;2022-07-29T01:46:35;17.80;95.80
37222;DHT22;23119;51.842;-2.230;2022-07-29T01:49:22;17.80;95.70
37222;DHT22;23119;51.842;-2.230;2022-07-29T01:51:52;17.80;95.70
37222;DHT22;23119;51.842;-2.230;2022-07-29T01:54:32;17.80;95.60
37222;DHT22;23119;51.842;-2.230;2022-07-29T01:57:00;17.80;95.50
37222;DHT22;23119;51.842;-2.230;2022-07-29T01:59:29;17.80;95.30
37222;DHT22;23119;51.842;-2.230;2022-07-29T02:01:57;17.80;95.30
37222;DHT22;23119;51.842;-2.230;2022-07-29T02:04:27;17.80;95.40
37222;DHT22;23119;51.842;-2.230;2022-07-29T02:06:57;17.80;95.50
37222;DHT22;23119;51.842;-2.230;2022-07-29T02:09:27;17.80;95.60
37222;DHT22;23119;51.842;-2.230;2022-07-29T02:11:54;17.70;95.60
37222;DHT22;23119;51.842;-2.230;2022-07-29T02:14:22;17.70;95.50
37222;DHT22;23119;51.842;-2.230;2022-07-29T02:16:54;17.70;95.70
37222;DHT22;23119;51.842;-2.230;2022-07-29T02:19:26;17.70;95.80
37222;DHT22;23119;51.842;-2.230;2022-07-29T02:21:54;17.70;95.80
37222;DHT22;23119;51.842;-2.230;2022-07-29T02:24:23;17.60;95.90
37222;DHT22;23119;51.842;-2.230;2022-07-29T02:26:53;17.60;96.10
37222;DHT22;23119;51.842;-2.230;2022-07-29T02:29:21;17.60;96.20
37222;DHT22;23119;51.842;-2.230;2022-07-29T02:31:49;17.50;96.30
37222;DHT22;23119;51.842;-2.230;2022-07-29T02:34:17;17.50;96.40
37222;DHT22;23119;51.842;-2.230;2022-07-29T02:36:48;17.50;96.50
37222;DHT22;23119;51.842;-2.230;2022-07-29T02:39:17;17.40;96.30
37222;DHT22;23119;51.842;-2.230;2022-07-29T02:41:47;17.40;96.30
37222;DHT22;23119;51.842;-2.230;2022-07-29T02:44:20;17.40;96.40
37222;DHT22;23119;51.842;-2.230;2022-07-29T02:46:49;17.40;96.50
37222;DHT22;23119;51.842;-2.230;2022-07-29T02:49:34;17.30;96.40
37222;DHT22;23119;51.842;-2.230;2022-07-29T02:52:04;17.30;96.50
37222;DHT22;23119;51.842;-2.230;2022-07-29T02:54:56;17.30;96.50
37222;DHT22;23119;51.842;-2.230;2022-07-29T02:57:32;17.30;96.60
37222;DHT22;23119;51.842;-2.230;2022-07-29T03:00:02;17.20;96.70
37222;DHT22;23119;51.842;-2.230;2022-07-29T03:02:30;17.20;96.80
37222;DHT22;23119;51.842;-2.230;2022-07-29T03:05:03;17.50;97.30
37222;DHT22;23119;51.842;-2.230;2022-07-29T03:07:30;17.20;97.20
37222;DHT22;23119;51.842;-2.230;2022-07-29T03:10:00;17.10;97.30
37222;DHT22;23119;51.842;-2.230;2022-07-29T03:12:28;17.10;97.70
37222;DHT22;23119;51.842;-2.230;2022-07-29T03:14:59;17.10;97.80
37222;DHT22;23119;51.842;-2.230;2022-07-29T03:17:26;17.10;97.80
37222;DHT22;23119;51.842;-2.230;2022-07-29T03:19:52;17.10;98.10
37222;DHT22;23119;51.842;-2.230;2022-07-29T03:22:18;17.10;98.10
37222;DHT22;23119;51.842;-2.230;2022-07-29T03:24:44;17.10;98.20
37222;DHT22;23119;51.842;-2.230;2022-07-29T03:27:10;17.00;98.50
37222;DHT22;23119;51.842;-2.230;2022-07-29T03:29:39;17.00;98.60
37222;DHT22;23119;51.842;-2.230;2022-07-29T03:32:25;17.00;98.80
37222;DHT22;23119;51.842;-2.230;2022-07-29T03:34:53;17.00;98.90
37222;DHT22;23119;51.842;-2.230;2022-07-29T03:37:19;16.90;99.00
37222;DHT22;23119;51.842;-2.230;2022-07-29T03:39:45;16.90;99.20
37222;DHT22;23119;51.842;-2.230;2022-07-29T03:42:19;16.90;99.50
37222;DHT22;23119;51.842;-2.230;2022-07-29T03:44:48;16.90;99.60
37222;DHT22;23119;51.842;-2.230;2022-07-29T03:47:18;16.90;99.90
37222;DHT22;23119;51.842;-2.230;2022-07-29T03:49:49;16.80;99.90
37222;DHT22;23119;51.842;-2.230;2022-07-29T03:52:16;16.80;99.90
37222;DHT22;23119;51.842;-2.230;2022-07-29T03:54:42;16.70;99.90
37222;DHT22;23119;51.842;-2.230;2022-07-29T03:57:10;16.70;99.90
37222;DHT22;23119;51.842;-2.230;2022-07-29T03:59:36;16.70;99.90
37222;DHT22;23119;51.842;-2.230;2022-07-29T04:02:04;16.60;99.90
37222;DHT22;23119;51.842;-2.230;2022-07-29T04:04:36;16.70;99.90
37222;DHT22;23119;51.842;-2.230;2022-07-29T04:07:03;16.60;99.90
37222;DHT22;23119;51.842;-2.230;2022-07-29T04:09:29;16.60;99.90
37222;DHT22;23119;51.842;-2.230;2022-07-29T04:11:55;16.70;99.90
37222;DHT22;23119;51.842;-2.230;2022-07-29T04:14:24;16.60;99.90
37222;DHT22;23119;51.842;-2.230;2022-07-29T04:16:55;16.60;99.90
37222;DHT22;23119;51.842;-2.230;2022-07-29T04:19:21;16.70;99.90
37222;DHT22;23119;51.842;-2.230;2022-07-29T04:21:48;16.70;99.90
37222;DHT22;23119;51.842;-2.230;2022-07-29T04:24:17;16.70;99.90
37222;DHT22;23119;51.842;-2.230;2022-07-29T04:26:43;16.70;99.90
37222;DHT22;23119;51.842;-2.230;2022-07-29T04:29:09;16.70;99.90
37222;DHT22;23119;51.842;-2.230;2022-07-29T04:31:34;16.70;99.90
37222;DHT22;23119;51.842;-2.230;2022-07-29T04:34:03;16.70;99.90
37222;DHT22;23119;51.842;-2.230;2022-07-29T04:36:29;16.70;99.90
37222;DHT22;23119;51.842;-2.230;2022-07-29T04:38:55;16.70;99.90
37222;DHT22;23119;51.842;-2.230;2022-07-29T04:41:24;16.80;99.90
37222;DHT22;23119;51.842;-2.230;2022-07-29T04:43:49;16.80;99.90
37222;DHT22;23119;51.842;-2.230;2022-07-29T04:46:15;16.80;99.90
37222;DHT22;23119;51.842;-2.230;2022-07-29T04:48:47;16.90;99.90
37222;DHT22;23119;51.842;-2.230;2022-07-29T04:51:18;16.90;99.90
37222;DHT22;23119;51.842;-2.230;2022-07-29T04:53:44;16.90;99.90
37222;DHT22;23119;51.842;-2.230;2022-07-29T04:56:11;16.90;99.90
37222;DHT22;23119;51.842;-2.230;2022-07-29T04:58:37;16.90;99.90
37222;DHT22;23119;51.842;-2.230;2022-07-29T05:01:03;17.00;99.90
37222;DHT22;23119;51.842;-2.230;2022-07-29T05:03:29;17.00;99.90
37222;DHT22;23119;51.842;-2.230;2022-07-29T05:05:55;17.00;99.90
37222;DHT22;23119;51.842;-2.230;2022-07-29T05:08:21;17.10;99.90
37222;DHT22;23119;51.842;-2.230;2022-07-29T05:10:52;17.10;99.90
37222;DHT22;23119;51.842;-2.230;2022-07-29T05:13:20;17.10;99.90
37222;DHT22;23119;51.842;-2.230;2022-07-29T05:15:48;17.10;99.90
37222;DHT22;23119;51.842;-2.230;2022-07-29T05:18:17;17.10;99.90
37222;DHT22;23119;51.842;-2.230;2022-07-29T05:20:42;17.10;99.90
37222;DHT22;23119;51.842;-2.230;2022-07-29T05:23:08;17.10;99.90
37222;DHT22;23119;51.842;-2.230;2022-07-29T05:25:34;17.20;99.90
37222;DHT22;23119;51.842;-2.230;2022-07-29T05:28:03;17.20;99.90
37222;DHT22;23119;51.842;-2.230;2022-07-29T05:30:31;17.30;99.90
37222;DHT22;23119;51.842;-2.230;2022-07-29T05:32:57;17.40;99.90
37222;DHT22;23119;51.842;-2.230;2022-07-29T05:35:25;17.50;99.90
37222;DHT22;23119;51.842;-2.230;2022-07-29T05:37:51;17.50;99.90
37222;DHT22;23119;51.842;-2.230;2022-07-29T05:40:17;17.60;99.90
37222;DHT22;23119;51.842;-2.230;2022-07-29T05:42:43;17.70;99.90
37222;DHT22;23119;51.842;-2.230;2022-07-29T05:45:09;17.70;99.90
37222;DHT22;23119;51.842;-2.230;2022-07-29T05:47:35;17.80;99.90
37222;DHT22;23119;51.842;-2.230;2022-07-29T05:50:04;17.90;99.90
37222;DHT22;23119;51.842;-2.230;2022-07-29T05:52:30;18.00;99.90
37222;DHT22;23119;51.842;-2.230;2022-07-29T05:54:58;18.10;99.90
37222;DHT22;23119;51.842;-2.230;2022-07-29T05:57:29;18.30;99.90
37222;DHT22;23119;51.842;-2.230;2022-07-29T06:00:04;18.40;99.80
37222;DHT22;23119;51.842;-2.230;2022-07-29T06:02:34;18.70;99.60
37222;DHT22;23119;51.842;-2.230;2022-07-29T06:05:00;19.00;99.30
37222;DHT22;23119;51.842;-2.230;2022-07-29T06:07:26;19.40;99.00
37222;DHT22;23119;51.842;-2.230;2022-07-29T06:09:52;20.10;98.30
37222;DHT22;23119;51.842;-2.230;2022-07-29T06:12:18;20.80;97.50
37222;DHT22;23119;51.842;-2.230;2022-07-29T06:14:45;21.50;96.70
37222;DHT22;23119;51.842;-2.230;2022-07-29T06:17:16;22.30;95.60
37222;DHT22;23119;51.842;-2.230;2022-07-29T06:19:41;23.60;93.70
37222;DHT22;23119;51.842;-2.230;2022-07-29T06:22:07;25.70;91.40
37222;DHT22;23119;51.842;-2.230;2022-07-29T06:24:33;27.70;88.50
37222;DHT22;23119;51.842;-2.230;2022-07-29T06:26:59;29.30;83.90
37222;DHT22;23119;51.842;-2.230;2022-07-29T06:29:24;30.20;81.60
37222;DHT22;23119;51.842;-2.230;2022-07-29T06:31:50;31.10;79.70
37222;DHT22;23119;51.842;-2.230;2022-07-29T06:34:16;32.30;77.10
37222;DHT22;23119;51.842;-2.230;2022-07-29T06:36:44;32.40;75.00
37222;DHT22;23119;51.842;-2.230;2022-07-29T06:39:10;32.20;74.60
37222;DHT22;23119;51.842;-2.230;2022-07-29T06:41:38;32.10;73.90
37222;DHT22;23119;51.842;-2.230;2022-07-29T06:44:09;32.20;72.60
37222;DHT22;23119;51.842;-2.230;2022-07-29T06:46:39;32.60;71.30
37222;DHT22;23119;51.842;-2.230;2022-07-29T06:49:15;33.90;69.20
37222;DHT22;23119;51.842;-2.230;2022-07-29T06:51:40;34.10;66.70
37222;DHT22;23119;51.842;-2.230;2022-07-29T06:54:09;34.70;66.60
37222;DHT22;23119;51.842;-2.230;2022-07-29T06:56:38;35.00;65.30
37222;DHT22;23119;51.842;-2.230;2022-07-29T06:59:14;35.20;64.00
37222;DHT22;23119;51.842;-2.230;2022-07-29T07:01:43;35.70;64.00
37222;DHT22;23119;51.842;-2.230;2022-07-29T07:04:12;36.70;63.00
37222;DHT22;23119;51.842;-2.230;2022-07-29T07:06:45;37.00;61.30
37222;DHT22;23119;51.842;-2.230;2022-07-29T07:09:11;37.40;61.70
37222;DHT22;23119;51.842;-2.230;2022-07-29T07:11:41;37.90;59.50
37222;DHT22;23119;51.842;-2.230;2022-07-29T07:14:11;38.10;58.00
37222;DHT22;23119;51.842;-2.230;2022-07-29T07:16:39;37.00;58.60
37222;DHT22;23119;51.842;-2.230;2022-07-29T07:19:07;36.20;58.90
37222;DHT22;23119;51.842;-2.230;2022-07-29T07:21:33;36.20;59.20
37222;DHT22;23119;51.842;-2.230;2022-07-29T07:24:05;36.90;58.70
37222;DHT22;23119;51.842;-2.230;2022-07-29T07:26:30;37.20;57.90
37222;DHT22;23119;51.842;-2.230;2022-07-29T07:29:01;38.10;58.10
37222;DHT22;23119;51.842;-2.230;2022-07-29T07:31:32;38.70;57.40
37222;DHT22;23119;51.842;-2.230;2022-07-29T07:33:58;39.00;55.70
37222;DHT22;23119;51.842;-2.230;2022-07-29T07:36:24;39.50;56.30
37222;DHT22;23119;51.842;-2.230;2022-07-29T07:38:50;39.70;55.80
37222;DHT22;23119;51.842;-2.230;2022-07-29T07:41:15;39.50;54.70
37222;DHT22;23119;51.842;-2.230;2022-07-29T07:43:41;40.00;53.60
37222;DHT22;23119;51.842;-2.230;2022-07-29T07:46:07;39.90;54.60
37222;DHT22;23119;51.842;-2.230;2022-07-29T07:48:36;40.60;54.60
37222;DHT22;23119;51.842;-2.230;2022-07-29T07:51:02;40.70;54.10
37222;DHT22;23119;51.842;-2.230;2022-07-29T07:53:33;41.00;53.70
37222;DHT22;23119;51.842;-2.230;2022-07-29T07:56:00;41.30;53.60
37222;DHT22;23119;51.842;-2.230;2022-07-29T07:58:26;41.70;53.50
37222;DHT22;23119;51.842;-2.230;2022-07-29T08:00:54;42.30;53.00
37222;DHT22;23119;51.842;-2.230;2022-07-29T08:03:23;42.70;52.90
37222;DHT22;23119;51.842;-2.230;2022-07-29T08:05:50;43.00;53.00
37222;DHT22;23119;51.842;-2.230;2022-07-29T08:08:19;43.20;52.60
37222;DHT22;23119;51.842;-2.230;2022-07-29T08:10:48;43.40;52.10
37222;DHT22;23119;51.842;-2.230;2022-07-29T08:13:30;43.40;52.10
37222;DHT22;23119;51.842;-2.230;2022-07-29T08:16:03;43.40;52.10
37222;DHT22;23119;51.842;-2.230;2022-07-29T08:18:47;43.50;52.70
37222;DHT22;23119;51.842;-2.230;2022-07-29T08:21:14;43.50;52.00
37222;DHT22;23119;51.842;-2.230;2022-07-29T08:23:43;43.40;51.60
37222;DHT22;23119;51.842;-2.230;2022-07-29T08:26:14;43.10;51.40
37222;DHT22;23119;51.842;-2.230;2022-07-29T08:28:44;42.90;51.70
37222;DHT22;23119;51.842;-2.230;2022-07-29T08:31:14;42.50;51.80
37222;DHT22;23119;51.842;-2.230;2022-07-29T08:33:42;42.20;52.20
37222;DHT22;23119;51.842;-2.230;2022-07-29T08:36:08;41.70;52.20
37222;DHT22;23119;51.842;-2.230;2022-07-29T08:38:34;41.30;52.70
37222;DHT22;23119;51.842;-2.230;2022-07-29T08:41:05;40.90;53.00
37222;DHT22;23119;51.842;-2.230;2022-07-29T08:43:31;40.50;52.90
37222;DHT22;23119;51.842;-2.230;2022-07-29T08:46:00;40.00;53.30
37222;DHT22;23119;51.842;-2.230;2022-07-29T08:48:28;39.60;53.70
37222;DHT22;23119;51.842;-2.230;2022-07-29T08:51:02;39.00;54.20
37222;DHT22;23119;51.842;-2.230;2022-07-29T08:53:32;38.50;54.30
37222;DHT22;23119;51.842;-2.230;2022-07-29T08:56:03;38.00;54.80
37222;DHT22;23119;51.842;-2.230;2022-07-29T08:58:32;37.50;54.60
37222;DHT22;23119;51.842;-2.230;2022-07-29T09:01:04;36.70;53.50
37222;DHT22;23119;51.842;-2.230;2022-07-29T09:03:35;36.10;55.00
37222;DHT22;23119;51.842;-2.230;2022-07-29T09:06:05;35.70;55.40
37222;DHT22;23119;51.842;-2.230;2022-07-29T09:08:36;35.40;56.10
37222;DHT22;23119;51.842;-2.230;2022-07-29T09:11:02;35.00;56.20
37222;DHT22;23119;51.842;-2.230;2022-07-29T09:13:35;34.80;56.80
37222;DHT22;23119;51.842;-2.230;2022-07-29T09:16:05;34.40;56.90
37222;DHT22;23119;51.842;-2.230;2022-07-29T09:18:43;33.50;57.20
37222;DHT22;23119;51.842;-2.230;2022-07-29T09:21:17;33.10;57.80
37222;DHT22;23119;51.842;-2.230;2022-07-29T09:26:36;32.00;59.40
37222;DHT22;23119;51.842;-2.230;2022-07-29T09:29:22;31.90;60.40
37222;DHT22;23119;51.842;-2.230;2022-07-29T09:31:53;31.80;60.20
37222;DHT22;23119;51.842;-2.230;2022-07-29T09:34:24;31.70;60.70
37222;DHT22;23119;51.842;-2.230;2022-07-29T09:36:51;31.80;60.80
37222;DHT22;23119;51.842;-2.230;2022-07-29T09:39:35;31.80;60.80
37222;DHT22;23119;51.842;-2.230;2022-07-29T09:42:14;31.90;61.00
37222;DHT22;23119;51.842;-2.230;2022-07-29T09:44:51;31.90;61.00
37222;DHT22;23119;51.842;-2.230;2022-07-29T09:47:44;32.10;61.40
37222;DHT22;23119;51.842;-2.230;2022-07-29T09:50:16;32.00;61.30
37222;DHT22;23119;51.842;-2.230;2022-07-29T09:53:01;32.10;61.10
37222;DHT22;23119;51.842;-2.230;2022-07-29T09:55:28;32.10;61.40
37222;DHT22;23119;51.842;-2.230;2022-07-29T10:00:55;32.40;62.40
37222;DHT22;23119;51.842;-2.230;2022-07-29T10:03:24;32.50;60.40
37222;DHT22;23119;51.842;-2.230;2022-07-29T10:06:10;32.40;61.10
37222;DHT22;23119;51.842;-2.230;2022-07-29T10:08:44;32.30;61.30
37222;DHT22;23119;51.842;-2.230;2022-07-29T10:11:19;32.50;61.40
37222;DHT22;23119;51.842;-2.230;2022-07-29T10:13:48;32.60;59.70
37222;DHT22;23119;51.842;-2.230;2022-07-29T10:16:17;32.30;60.70
37222;DHT22;23119;51.842;-2.230;2022-07-29T10:18:45;32.30;61.00
37222;DHT22;23119;51.842;-2.230;2022-07-29T10:21:12;31.90;60.40
37222;DHT22;23119;51.842;-2.230;2022-07-29T10:23:38;31.90;59.90
37222;DHT22;23119;51.842;-2.230;2022-07-29T10:26:05;31.70;61.10
37222;DHT22;23119;51.842;-2.230;2022-07-29T10:28:31;31.50;60.60
37222;DHT22;23119;51.842;-2.230;2022-07-29T10:31:03;31.40;60.80
37222;DHT22;23119;51.842;-2.230;2022-07-29T10:38:37;31.50;60.20
37222;DHT22;23119;51.842;-2.230;2022-07-29T10:41:27;31.30;60.40
37222;DHT22;23119;51.842;-2.230;2022-07-29T10:44:26;31.20;60.70
37222;DHT22;23119;51.842;-2.230;2022-07-29T10:46:53;30.80;61.00
37222;DHT22;23119;51.842;-2.230;2022-07-29T10:52:02;30.60;62.10
37222;DHT22;23119;51.842;-2.230;2022-07-29T10:57:19;30.40;62.10
37222;DHT22;23119;51.842;-2.230;2022-07-29T11:02:41;30.40;62.20
37222;DHT22;23119;51.842;-2.230;2022-07-29T11:05:14;30.70;63.50
37222;DHT22;23119;51.842;-2.230;2022-07-29T11:10:44;31.20;62.70
37222;DHT22;23119;51.842;-2.230;2022-07-29T11:13:12;31.70;62.50
37222;DHT22;23119;51.842;-2.230;2022-07-29T11:15:57;31.90;62.20
37222;DHT22;23119;51.842;-2.230;2022-07-29T11:18:23;32.20;60.50
37222;DHT22;23119;51.842;-2.230;2022-07-29T11:20:54;32.10;60.70
37222;DHT22;23119;51.842;-2.230;2022-07-29T11:23:31;32.20;61.20
37222;DHT22;23119;51.842;-2.230;2022-07-29T11:26:13;31.90;60.10
37222;DHT22;23119;51.842;-2.230;2022-07-29T11:28:49;31.10;60.80
37222;DHT22;23119;51.842;-2.230;2022-07-29T11:31:31;30.40;61.60
37222;DHT22;23119;51.842;-2.230;2022-07-29T11:39:33;29.30;63.50
37222;DHT22;23119;51.842;-2.230;2022-07-29T11:50:15;30.60;62.80
37222;DHT22;23119;51.842;-2.230;2022-07-29T11:52:46;30.60;61.30
37222;DHT22;23119;51.842;-2.230;2022-07-29T11:55:19;30.40;62.40
37222;DHT22;23119;51.842;-2.230;2022-07-29T11:57:56;30.60;62.60
37222;DHT22;23119;51.842;-2.230;2022-07-29T12:00:35;30.90;62.60
37222;DHT22;23119;51.842;-2.230;2022-07-29T12:03:10;31.20;61.90
37222;DHT22;23119;51.842;-2.230;2022-07-29T12:05:40;31.50;61.90
37222;DHT22;23119;51.842;-2.230;2022-07-29T12:08:15;31.90;60.90
37222;DHT22;23119;51.842;-2.230;2022-07-29T12:10:44;32.10;60.00
37222;DHT22;23119;51.842;-2.230;2022-07-29T12:13:12;32.20;60.90
37222;DHT22;23119;51.842;-2.230;2022-07-29T12:15:40;32.40;60.50
37222;DHT22;23119;51.842;-2.230;2022-07-29T12:18:14;32.70;59.90
37222;DHT22;23119;51.842;-2.230;2022-07-29T12:20:43;32.90;59.70
37222;DHT22;23119;51.842;-2.230;2022-07-29T12:23:13;32.80;59.10
37222;DHT22;23119;51.842;-2.230;2022-07-29T12:25:50;32.70;58.50
37222;DHT22;23119;51.842;-2.230;2022-07-29T12:28:19;32.90;59.20
37222;DHT22;23119;51.842;-2.230;2022-07-29T12:30:49;32.80;59.20
37222;DHT22;23119;51.842;-2.230;2022-07-29T12:33:27;32.90;59.20
37222;DHT22;23119;51.842;-2.230;2022-07-29T12:36:00;33.10;59.40
37222;DHT22;23119;51.842;-2.230;2022-07-29T12:38:27;33.40;59.30
37222;DHT22;23119;51.842;-2.230;2022-07-29T12:40:56;33.60;59.40
37222;DHT22;23119;51.842;-2.230;2022-07-29T12:43:26;33.50;58.90
37222;DHT22;23119;51.842;-2.230;2022-07-29T12:45:54;33.30;59.00
37222;DHT22;23119;51.842;-2.230;2022-07-29T12:48:36;33.00;58.80
37222;DHT22;23119;51.842;-2.230;2022-07-29T12:51:04;32.80;57.90
37222;DHT22;23119;51.842;-2.230;2022-07-29T12:53:33;32.60;58.30
37222;DHT22;23119;51.842;-2.230;2022-07-29T12:56:02;32.40;58.30
37222;DHT22;23119;51.842;-2.230;2022-07-29T12:58:49;32.30;58.30
37222;DHT22;23119;51.842;-2.230;2022-07-29T13:01:16;32.30;58.40
37222;DHT22;23119;51.842;-2.230;2022-07-29T13:03:54;32.20;58.60
37222;DHT22;23119;51.842;-2.230;2022-07-29T13:09:12;32.60;58.60
37222;DHT22;23119;51.842;-2.230;2022-07-29T13:11:44;32.70;58.60
37222;DHT22;23119;51.842;-2.230;2022-07-29T13:14:12;32.60;58.50
37222;DHT22;23119;51.842;-2.230;2022-07-29T13:17:03;32.40;58.60
37222;DHT22;23119;51.842;-2.230;2022-07-29T13:19:41;32.00;58.40
37222;DHT22;23119;51.842;-2.230;2022-07-29T13:22:15;31.80;59.20
37222;DHT22;23119;51.842;-2.230;2022-07-29T13:24:47;31.90;59.10
37222;DHT22;23119;51.842;-2.230;2022-07-29T13:27:16;32.20;59.20
37222;DHT22;23119;51.842;-2.230;2022-07-29T13:29:45;32.50;59.30
37222;DHT22;23119;51.842;-2.230;2022-07-29T13:32:12;32.90;58.70
37222;DHT22;23119;51.842;-2.230;2022-07-29T13:34:39;33.20;58.80
37222;DHT22;23119;51.842;-2.230;2022-07-29T13:37:08;33.50;58.60
37222;DHT22;23119;51.842;-2.230;2022-07-29T13:39:36;33.70;58.30
37222;DHT22;23119;51.842;-2.230;2022-07-29T13:42:03;33.60;58.20
37222;DHT22;23119;51.842;-2.230;2022-07-29T13:44:30;33.50;58.30
37222;DHT22;23119;51.842;-2.230;2022-07-29T13:46:57;33.10;58.10
37222;DHT22;23119;51.842;-2.230;2022-07-29T13:49:25;33.00;58.40
37222;DHT22;23119;51.842;-2.230;2022-07-29T13:51:51;32.70;58.30
37222;DHT22;23119;51.842;-2.230;2022-07-29T13:54:17;32.60;58.70
37222;DHT22;23119;51.842;-2.230;2022-07-29T13:56:46;32.40;58.20
37222;DHT22;23119;51.842;-2.230;2022-07-29T13:59:12;32.50;58.40
37222;DHT22;23119;51.842;-2.230;2022-07-29T14:01:39;32.50;57.70
37222;DHT22;23119;51.842;-2.230;2022-07-29T14:04:08;32.50;57.50
37222;DHT22;23119;51.842;-2.230;2022-07-29T14:06:36;32.20;57.60
37222;DHT22;23119;51.842;-2.230;2022-07-29T14:09:06;32.10;58.20
37222;DHT22;23119;51.842;-2.230;2022-07-29T14:11:34;31.90;58.30
37222;DHT22;23119;51.842;-2.230;2022-07-29T14:14:07;31.70;58.20
37222;DHT22;23119;51.842;-2.230;2022-07-29T14:16:36;31.50;57.90
37222;DHT22;23119;51.842;-2.230;2022-07-29T14:19:02;31.30;58.30
37222;DHT22;23119;51.842;-2.230;2022-07-29T14:21:34;31.10;58.90
37222;DHT22;23119;51.842;-2.230;2022-07-29T14:24:04;31.00;59.00
37222;DHT22;23119;51.842;-2.230;2022-07-29T14:26:29;30.90;59.10
37222;DHT22;23119;51.842;-2.230;2022-07-29T14:28:55;30.90;59.40
37222;DHT22;23119;51.842;-2.230;2022-07-29T14:31:23;30.90;59.40
37222;DHT22;23119;51.842;-2.230;2022-07-29T14:33:49;30.90;59.40
37222;DHT22;23119;51.842;-2.230;2022-07-29T14:36:15;30.90;59.10
37222;DHT22;23119;51.842;-2.230;2022-07-29T14:38:46;30.70;59.20
37222;DHT22;23119;51.842;-2.230;2022-07-29T14:41:11;30.50;59.30
37222;DHT22;23119;51.842;-2.230;2022-07-29T14:43:40;30.50;59.70
37222;DHT22;23119;51.842;-2.230;2022-07-29T14:46:16;30.30;60.20
37222;DHT22;23119;51.842;-2.230;2022-07-29T14:48:42;30.20;59.40
37222;DHT22;23119;51.842;-2.230;2022-07-29T14:51:10;30.10;60.30
37222;DHT22;23119;51.842;-2.230;2022-07-29T14:53:38;30.10;60.50
37222;DHT22;23119;51.842;-2.230;2022-07-29T14:56:07;30.20;60.90
37222;DHT22;23119;51.842;-2.230;2022-07-29T14:58:33;30.10;61.40
37222;DHT22;23119;51.842;-2.230;2022-07-29T15:01:04;30.10;61.40
37222;DHT22;23119;51.842;-2.230;2022-07-29T15:03:30;30.10;61.00
37222;DHT22;23119;51.842;-2.230;2022-07-29T15:06:01;30.00;61.00
37222;DHT22;23119;51.842;-2.230;2022-07-29T15:08:27;29.90;61.30
37222;DHT22;23119;51.842;-2.230;2022-07-29T15:10:58;29.80;61.30
37222;DHT22;23119;51.842;-2.230;2022-07-29T15:13:25;29.70;61.20
37222;DHT22;23119;51.842;-2.230;2022-07-29T15:15:51;29.70;61.70
37222;DHT22;23119;51.842;-2.230;2022-07-29T15:18:17;29.50;62.10
37222;DHT22;23119;51.842;-2.230;2022-07-29T15:20:45;29.50;62.70
37222;DHT22;23119;51.842;-2.230;2022-07-29T15:23:14;29.40;63.50
37222;DHT22;23119;51.842;-2.230;2022-07-29T15:25:45;29.30;64.00
37222;DHT22;23119;51.842;-2.230;2022-07-29T15:28:18;29.30;64.80
37222;DHT22;23119;51.842;-2.230;2022-07-29T15:30:48;29.20;65.30
37222;DHT22;23119;51.842;-2.230;2022-07-29T15:33:16;29.20;65.90
37222;DHT22;23119;51.842;-2.230;2022-07-29T15:35:45;29.10;66.50
37222;DHT22;23119;51.842;-2.230;2022-07-29T15:38:11;29.00;66.70
37222;DHT22;23119;51.842;-2.230;2022-07-29T15:40:39;28.90;66.60
37222;DHT22;23119;51.842;-2.230;2022-07-29T15:43:12;28.90;66.30
37222;DHT22;23119;51.842;-2.230;2022-07-29T15:45:42;28.90;66.10
37222;DHT22;23119;51.842;-2.230;2022-07-29T15:48:35;28.90;65.60
37222;DHT22;23119;51.842;-2.230;2022-07-29T15:51:05;28.90;65.20
37222;DHT22;23119;51.842;-2.230;2022-07-29T15:53:35;29.00;64.80
37222;DHT22;23119;51.842;-2.230;2022-07-29T15:56:02;29.10;64.70
37222;DHT22;23119;51.842;-2.230;2022-07-29T15:58:30;29.20;64.50
37222;DHT22;23119;51.842;-2.230;2022-07-29T16:00:58;29.20;64.40
37222;DHT22;23119;51.842;-2.230;2022-07-29T16:03:26;29.20;64.30
37222;DHT22;23119;51.842;-2.230;2022-07-29T16:05:52;29.30;65.10
37222;DHT22;23119;51.842;-2.230;2022-07-29T16:08:21;29.20;65.90
37222;DHT22;23119;51.842;-2.230;2022-07-29T16:10:50;29.20;66.40
37222;DHT22;23119;51.842;-2.230;2022-07-29T16:13:18;29.20;65.70
37222;DHT22;23119;51.842;-2.230;2022-07-29T16:15:47;29.30;65.60
37222;DHT22;23119;51.842;-2.230;2022-07-29T16:18:13;29.30;65.20